sensor_id;sensor_type;location;lat;lon;timestamp;temperature;humidity
67890;DHT22;54685;52.082;5.426;2023-03-01T00:01:39;-0.20;99.90
67890;DHT22;54685;52.082;5.426;2023-03-01T00:04:07;-0.30;99.90
67890;DHT22;54685;52.082;5.426;2023-03-01T00:06:34;-0.30;99.90
67890;DHT22;54685;52.082;5.426;2023-03-01T00:09:01;-0.20;99.90
67890;DHT22;54685;52.082;5.426;2023-03-01T00:11:29;-0.30;99.90
67890;DHT22;54685;52.082;5.426;2023-03-01T00:13:59;-0.30;99.90
67890;DHT22;54685;52.082;5.426;2023-03-01T00:16:29;-0.30;99.90
67890;DHT22;54685;52.082;5.426;2023-03-01T00:18:57;-0.30;99.90
67890;DHT22;54685;52.082;5.426;2023-03-01T00:21:25;-0.30;99.90
67890;DHT22;54685;52.082;5.426;2023-03-01T00:23:54;-0.40;99.90
67890;DHT22;54685;52.082;5.426;2023-03-01T00:26:25;-0.40;99.90
67890;DHT22;54685;52.082;5.426;2023-03-01T00:28:52;-0.40;99.90
67890;DHT22;54685;52.082;5.426;2023-03-01T00:31:21;-0.40;99.90
67890;DHT22;54685;52.082;5.426;2023-03-01T00:33:55;-0.50;99.90
67890;DHT22;54685;52.082;5.426;2023-03-01T00:36:28;-0.50;99.90
67890;DHT22;54685;52.082;5.426;2023-03-01T00:38:56;-0.50;99.90
67890;DHT22;54685;52.082;5.426;2023-03-01T00:41:23;-0.50;99.90
67890;DHT22;54685;52.082;5.426;2023-03-01T00:43:53;-0.60;99.90
67890;DHT22;54685;52.082;5.426;2023-03-01T00:46:25;-0.60;99.90
67890;DHT22;54685;52.082;5.426;2023-03-01T00:48:53;-0.60;99.90
67890;DHT22;54685;52.082;5.426;2023-03-01T00:51:26;-0.60;99.90
67890;DHT22;54685;52.082;5.426;2023-03-01T00:53:57;-0.60;99.90
67890;DHT22;54685;52.082;5.426;2023-03-01T00:56:27;-0.70;99.90
67890;DHT22;54685;52.082;5.426;2023-03-01T00:58:56;-0.70;99.90
67890;DHT22;54685;52.082;5.426;2023-03-01T01:01:28;-0.70;99.90
67890;DHT22;54685;52.082;5.426;2023-03-01T01:04:01;-0.80;99.90
67890;DHT22;54685;52.082;5.426;2023-03-01T01:06:42;-0.80;99.90
67890;DHT22;54685;52.082;5.426;2023-03-01T01:09:11;-0.80;99.90
67890;DHT22;54685;52.082;5.426;2023-03-01T01:11:48;-0.90;99.90
67890;DHT22;54685;52.082;5.426;2023-03-01T01:14:17;-0.90;99.90
67890;DHT22;54685;52.082;5.426;2023-03-01T01:16:44;-0.80;99.90
67890;DHT22;54685;52.082;5.426;2023-03-01T01:19:16;-0.80;99.90
67890;DHT22;54685;52.082;5.426;2023-03-01T01:21:43;-0.80;99.90
67890;DHT22;54685;52.082;5.426;2023-03-01T01:24:10;-0.80;99.90
67890;DHT22;54685;52.082;5.426;2023-03-01T01:26:38;-0.90;99.90
67890;DHT22;54685;52.082;5.426;2023-03-01T01:29:08;-0.90;99.90
67890;DHT22;54685;52.082;5.426;2023-03-01T01:31:37;-0.90;99.90
67890;DHT22;54685;52.082;5.426;2023-03-01T01:34:06;-0.90;99.90
67890;DHT22;54685;52.082;5.426;2023-03-01T01:36:34;-0.90;99.90
67890;DHT22;54685;52.082;5.426;2023-03-01T01:39:01;-0.90;99.90
67890;DHT22;54685;52.082;5.426;2023-03-01T01:41:29;-0.90;99.90
67890;DHT22;54685;52.082;5.426;2023-03-01T01:46:43;-0.90;99.90
67890;DHT22;54685;52.082;5.426;2023-03-01T01:49:19;-1.00;99.90
67890;DHT22;54685;52.082;5.426;2023-03-01T01:51:51;-1.00;99.90
67890;DHT22;54685;52.082;5.426;2023-03-01T01:57:23;-1.00;99.90
67890;DHT22;54685;52.082;5.426;2023-03-01T01:59:56;-1.00;99.90
67890;DHT22;54685;52.082;5.426;2023-03-01T02:02:25;-1.10;99.90
67890;DHT22;54685;52.082;5.426;2023-03-01T02:05:00;-1.10;99.90
67890;DHT22;54685;52.082;5.426;2023-03-01T02:07:33;-1.10;99.90
67890;DHT22;54685;52.082;5.426;2023-03-01T02:10:00;-1.10;99.90
67890;DHT22;54685;52.082;5.426;2023-03-01T02:12:28;-1.20;99.90
67890;DHT22;54685;52.082;5.426;2023-03-01T02:14:56;-1.20;99.90
67890;DHT22;54685;52.082;5.426;2023-03-01T02:17:22;-1.20;99.90
67890;DHT22;54685;52.082;5.426;2023-03-01T02:22:38;-1.30;99.90
67890;DHT22;54685;52.082;5.426;2023-03-01T02:25:29;-1.30;99.90
67890;DHT22;54685;52.082;5.426;2023-03-01T02:30:51;-1.30;99.90
67890;DHT22;54685;52.082;5.426;2023-03-01T02:33:42;-1.40;99.90
67890;DHT22;54685;52.082;5.426;2023-03-01T02:36:14;-1.40;99.90
67890;DHT22;54685;52.082;5.426;2023-03-01T02:38:42;-1.40;99.90
67890;DHT22;54685;52.082;5.426;2023-03-01T02:41:12;-1.40;99.90
67890;DHT22;54685;52.082;5.426;2023-03-01T02:43:40;-1.40;99.90
67890;DHT22;54685;52.082;5.426;2023-03-01T02:46:16;-1.50;99.90
67890;DHT22;54685;52.082;5.426;2023-03-01T02:48:51;-1.50;99.90
67890;DHT22;54685;52.082;5.426;2023-03-01T02:51:46;-1.50;99.90
67890;DHT22;54685;52.082;5.426;2023-03-01T02:54:30;-1.40;99.90
67890;DHT22;54685;52.082;5.426;2023-03-01T02:56:59;-1.40;99.90
67890;DHT22;54685;52.082;5.426;2023-03-01T02:59:32;-1.30;99.90
67890;DHT22;54685;52.082;5.426;2023-03-01T03:02:17;-1.30;99.90
67890;DHT22;54685;52.082;5.426;2023-03-01T03:04:47;-1.30;99.90
67890;DHT22;54685;52.082;5.426;2023-03-01T03:07:14;-1.20;99.90
67890;DHT22;54685;52.082;5.426;2023-03-01T03:09:42;-1.20;99.90
67890;DHT22;54685;52.082;5.426;2023-03-01T03:12:09;-1.30;99.90
67890;DHT22;54685;52.082;5.426;2023-03-01T03:14:36;-1.40;99.90
67890;DHT22;54685;52.082;5.426;2023-03-01T03:17:03;-1.50;99.90
67890;DHT22;54685;52.082;5.426;2023-03-01T03:19:34;-1.50;99.90
67890;DHT22;54685;52.082;5.426;2023-03-01T03:22:01;-1.60;99.90
67890;DHT22;54685;52.082;5.426;2023-03-01T03:24:28;-1.60;99.90
67890;DHT22;54685;52.082;5.426;2023-03-01T03:26:55;-1.60;99.90
67890;DHT22;54685;52.082;5.426;2023-03-01T03:29:21;-1.60;99.90
67890;DHT22;54685;52.082;5.426;2023-03-01T03:31:48;-1.60;99.90
67890;DHT22;54685;52.082;5.426;2023-03-01T03:34:15;-1.60;99.90
67890;DHT22;54685;52.082;5.426;2023-03-01T03:36:45;-1.60;99.90
67890;DHT22;54685;52.082;5.426;2023-03-01T03:39:11;-1.60;99.90
67890;DHT22;54685;52.082;5.426;2023-03-01T03:41:38;-1.70;99.90
67890;DHT22;54685;52.082;5.426;2023-03-01T03:44:05;-1.70;99.90
67890;DHT22;54685;52.082;5.426;2023-03-01T03:46:32;-1.70;99.90
67890;DHT22;54685;52.082;5.426;2023-03-01T03:48:59;-1.70;99.90
67890;DHT22;54685;52.082;5.426;2023-03-01T03:51:26;-1.70;99.90
67890;DHT22;54685;52.082;5.426;2023-03-01T03:53:53;-1.60;99.90
67890;DHT22;54685;52.082;5.426;2023-03-01T03:56:19;-1.60;99.90
67890;DHT22;54685;52.082;5.426;2023-03-01T03:58:46;-1.60;99.90
67890;DHT22;54685;52.082;5.426;2023-03-01T04:01:13;-1.60;99.90
67890;DHT22;54685;52.082;5.426;2023-03-01T04:03:40;-1.60;99.90
67890;DHT22;54685;52.082;5.426;2023-03-01T04:06:14;-1.70;99.90
67890;DHT22;54685;52.082;5.426;2023-03-01T04:08:41;-1.80;99.90
67890;DHT22;54685;52.082;5.426;2023-03-01T04:11:08;-1.90;99.90
67890;DHT22;54685;52.082;5.426;2023-03-01T04:13:56;-2.00;99.90
67890;DHT22;54685;52.082;5.426;2023-03-01T04:16:23;-2.00;99.90
67890;DHT22;54685;52.082;5.426;2023-03-01T04:18:50;-2.10;99.90
67890;DHT22;54685;52.082;5.426;2023-03-01T04:21:18;-2.10;99.90
67890;DHT22;54685;52.082;5.426;2023-03-01T04:23:46;-2.10;99.90
67890;DHT22;54685;52.082;5.426;2023-03-01T04:26:13;-2.10;99.90
67890;DHT22;54685;52.082;5.426;2023-03-01T04:28:41;-2.10;99.90
67890;DHT22;54685;52.082;5.426;2023-03-01T04:31:19;-2.10;99.90
67890;DHT22;54685;52.082;5.426;2023-03-01T04:33:55;-2.20;99.90
67890;DHT22;54685;52.082;5.426;2023-03-01T04:36:24;-2.20;99.90
67890;DHT22;54685;52.082;5.426;2023-03-01T04:38:52;-2.20;99.90
67890;DHT22;54685;52.082;5.426;2023-03-01T04:41:21;-2.20;99.90
67890;DHT22;54685;52.082;5.426;2023-03-01T04:43:48;-2.30;99.90
67890;DHT22;54685;52.082;5.426;2023-03-01T04:46:19;-2.30;99.90
67890;DHT22;54685;52.082;5.426;2023-03-01T04:48:46;-2.40;99.90
67890;DHT22;54685;52.082;5.426;2023-03-01T04:51:14;-2.40;99.90
67890;DHT22;54685;52.082;5.426;2023-03-01T04:53:42;-2.40;99.90
67890;DHT22;54685;52.082;5.426;2023-03-01T04:56:09;-2.40;99.90
67890;DHT22;54685;52.082;5.426;2023-03-01T04:58:36;-2.50;99.90
67890;DHT22;54685;52.082;5.426;2023-03-01T05:01:10;-2.50;99.90
67890;DHT22;54685;52.082;5.426;2023-03-01T05:03:46;-2.50;99.90
67890;DHT22;54685;52.082;5.426;2023-03-01T05:06:15;-2.50;99.90
67890;DHT22;54685;52.082;5.426;2023-03-01T05:08:42;-2.60;99.90
67890;DHT22;54685;52.082;5.426;2023-03-01T05:11:10;-2.60;99.90
67890;DHT22;54685;52.082;5.426;2023-03-01T05:13:38;-2.60;99.90
67890;DHT22;54685;52.082;5.426;2023-03-01T05:16:08;-2.60;99.90
67890;DHT22;54685;52.082;5.426;2023-03-01T05:18:38;-2.50;99.90
67890;DHT22;54685;52.082;5.426;2023-03-01T05:21:10;-2.60;99.90
67890;DHT22;54685;52.082;5.426;2023-03-01T05:23:38;-2.60;99.90
67890;DHT22;54685;52.082;5.426;2023-03-01T05:26:08;-2.60;99.90
67890;DHT22;54685;52.082;5.426;2023-03-01T05:28:59;-2.50;99.90
67890;DHT22;54685;52.082;5.426;2023-03-01T05:31:27;-2.70;99.90
67890;DHT22;54685;52.082;5.426;2023-03-01T05:33:55;-2.60;99.90
67890;DHT22;54685;52.082;5.426;2023-03-01T05:36:21;-2.60;99.90
67890;DHT22;54685;52.082;5.426;2023-03-01T05:38:51;-2.60;99.90
67890;DHT22;54685;52.082;5.426;2023-03-01T05:41:17;-2.70;99.90
67890;DHT22;54685;52.082;5.426;2023-03-01T05:43:44;-2.70;99.90
67890;DHT22;54685;52.082;5.426;2023-03-01T05:46:11;-2.70;99.90
67890;DHT22;54685;52.082;5.426;2023-03-01T05:48:40;-2.70;99.90
67890;DHT22;54685;52.082;5.426;2023-03-01T05:51:06;-2.70;99.90
67890;DHT22;54685;52.082;5.426;2023-03-01T05:53:33;-2.70;99.90
67890;DHT22;54685;52.082;5.426;2023-03-01T05:56:03;-2.70;99.90
67890;DHT22;54685;52.082;5.426;2023-03-01T05:58:30;-2.80;99.90
67890;DHT22;54685;52.082;5.426;2023-03-01T06:00:57;-2.80;99.90
67890;DHT22;54685;52.082;5.426;2023-03-01T06:03:25;-2.80;99.90
67890;DHT22;54685;52.082;5.426;2023-03-01T06:05:58;-2.80;99.90
67890;DHT22;54685;52.082;5.426;2023-03-01T06:08:25;-2.80;99.90
67890;DHT22;54685;52.082;5.426;2023-03-01T06:10:53;-2.80;99.90
67890;DHT22;54685;52.082;5.426;2023-03-01T06:13:20;-2.70;99.90
67890;DHT22;54685;52.082;5.426;2023-03-01T06:15:47;-2.80;99.90
67890;DHT22;54685;52.082;5.426;2023-03-01T06:18:15;-2.80;99.90
67890;DHT22;54685;52.082;5.426;2023-03-01T06:20:42;-2.80;99.90
67890;DHT22;54685;52.082;5.426;2023-03-01T06:23:10;-2.90;99.90
67890;DHT22;54685;52.082;5.426;2023-03-01T06:25:40;-2.90;99.90
67890;DHT22;54685;52.082;5.426;2023-03-01T06:28:07;-2.90;99.90
67890;DHT22;54685;52.082;5.426;2023-03-01T06:30:34;-2.90;99.90
67890;DHT22;54685;52.082;5.426;2023-03-01T06:33:37;-2.90;99.90
67890;DHT22;54685;52.082;5.426;2023-03-01T06:36:23;-2.90;99.90
67890;DHT22;54685;52.082;5.426;2023-03-01T06:42:29;-2.90;99.90
67890;DHT22;54685;52.082;5.426;2023-03-01T06:45:16;-2.90;99.90
67890;DHT22;54685;52.082;5.426;2023-03-01T06:48:09;-2.90;99.90
67890;DHT22;54685;52.082;5.426;2023-03-01T06:50:39;-2.90;99.90
67890;DHT22;54685;52.082;5.426;2023-03-01T06:53:06;-2.90;99.90
67890;DHT22;54685;52.082;5.426;2023-03-01T06:55:35;-2.90;99.90
67890;DHT22;54685;52.082;5.426;2023-03-01T06:58:09;-2.80;99.90
67890;DHT22;54685;52.082;5.426;2023-03-01T07:00:36;-2.80;99.90
67890;DHT22;54685;52.082;5.426;2023-03-01T07:03:03;-2.80;99.90
67890;DHT22;54685;52.082;5.426;2023-03-01T07:05:30;-2.80;99.90
67890;DHT22;54685;52.082;5.426;2023-03-01T07:07:57;-2.70;99.90
67890;DHT22;54685;52.082;5.426;2023-03-01T07:10:24;-2.70;99.90
67890;DHT22;54685;52.082;5.426;2023-03-01T07:12:55;-2.60;99.90
67890;DHT22;54685;52.082;5.426;2023-03-01T07:15:47;-2.50;99.90
67890;DHT22;54685;52.082;5.426;2023-03-01T07:18:17;-2.40;99.90
67890;DHT22;54685;52.082;5.426;2023-03-01T07:20:46;-2.40;99.90
67890;DHT22;54685;52.082;5.426;2023-03-01T07:23:13;-2.40;99.90
67890;DHT22;54685;52.082;5.426;2023-03-01T07:26:08;-2.40;99.90
67890;DHT22;54685;52.082;5.426;2023-03-01T07:29:01;-2.30;99.90
67890;DHT22;54685;52.082;5.426;2023-03-01T07:31:31;-2.30;99.90
67890;DHT22;54685;52.082;5.426;2023-03-01T07:34:00;-2.20;99.90
67890;DHT22;54685;52.082;5.426;2023-03-01T07:36:30;-2.10;99.90
67890;DHT22;54685;52.082;5.426;2023-03-01T07:39:10;-2.10;99.90
67890;DHT22;54685;52.082;5.426;2023-03-01T07:41:38;-2.10;99.90
67890;DHT22;54685;52.082;5.426;2023-03-01T07:44:12;-2.10;99.90
67890;DHT22;54685;52.082;5.426;2023-03-01T07:46:43;-2.00;99.90
67890;DHT22;54685;52.082;5.426;2023-03-01T07:49:36;-2.10;99.90
67890;DHT22;54685;52.082;5.426;2023-03-01T07:52:10;-1.90;99.90
67890;DHT22;54685;52.082;5.426;2023-03-01T07:54:43;-1.90;99.90
67890;DHT22;54685;52.082;5.426;2023-03-01T07:57:26;-1.80;99.90
67890;DHT22;54685;52.082;5.426;2023-03-01T07:59:53;-1.70;99.90
67890;DHT22;54685;52.082;5.426;2023-03-01T08:02:53;-1.70;99.90
67890;DHT22;54685;52.082;5.426;2023-03-01T08:05:20;-1.60;99.90
67890;DHT22;54685;52.082;5.426;2023-03-01T08:07:51;-1.50;99.90
67890;DHT22;54685;52.082;5.426;2023-03-01T08:10:18;-1.50;99.90
67890;DHT22;54685;52.082;5.426;2023-03-01T08:46:21;-0.40;99.90
67890;DHT22;54685;52.082;5.426;2023-03-01T09:13:30;0.20;99.90
67890;DHT22;54685;52.082;5.426;2023-03-01T09:16:03;0.40;99.90
67890;DHT22;54685;52.082;5.426;2023-03-01T09:18:57;0.70;99.90
67890;DHT22;54685;52.082;5.426;2023-03-01T09:25:53;1.00;99.90
67890;DHT22;54685;52.082;5.426;2023-03-01T09:28:27;1.10;99.90
67890;DHT22;54685;52.082;5.426;2023-03-01T09:31:00;1.20;99.90
67890;DHT22;54685;52.082;5.426;2023-03-01T09:33:31;1.50;99.90
67890;DHT22;54685;52.082;5.426;2023-03-01T09:36:05;1.50;99.90
67890;DHT22;54685;52.082;5.426;2023-03-01T09:38:34;1.70;99.90
67890;DHT22;54685;52.082;5.426;2023-03-01T09:41:01;1.80;99.90
67890;DHT22;54685;52.082;5.426;2023-03-01T09:43:40;1.90;99.90
67890;DHT22;54685;52.082;5.426;2023-03-01T09:46:13;2.00;99.90
67890;DHT22;54685;52.082;5.426;2023-03-01T10:11:26;4.70;99.90
67890;DHT22;54685;52.082;5.426;2023-03-01T10:14:03;5.60;88.10
67890;DHT22;54685;52.082;5.426;2023-03-01T10:25:53;7.60;72.80
67890;DHT22;54685;52.082;5.426;2023-03-01T10:28:25;8.50;67.00
67890;DHT22;54685;52.082;5.426;2023-03-01T10:30:52;9.10;59.90
67890;DHT22;54685;52.082;5.426;2023-03-01T10:33:24;9.30;59.10
67890;DHT22;54685;52.082;5.426;2023-03-01T10:35:52;9.60;56.30
67890;DHT22;54685;52.082;5.426;2023-03-01T10:38:20;9.80;55.00
67890;DHT22;54685;52.082;5.426;2023-03-01T10:43:48;9.90;52.10
67890;DHT22;54685;52.082;5.426;2023-03-01T10:46:44;10.20;52.40
67890;DHT22;54685;52.082;5.426;2023-03-01T10:49:19;10.50;48.80
67890;DHT22;54685;52.082;5.426;2023-03-01T10:51:51;10.50;48.20
67890;DHT22;54685;52.082;5.426;2023-03-01T10:54:29;10.70;49.10
67890;DHT22;54685;52.082;5.426;2023-03-01T10:57:04;10.90;48.40
67890;DHT22;54685;52.082;5.426;2023-03-01T10:59:34;11.00;46.50
67890;DHT22;54685;52.082;5.426;2023-03-01T11:02:22;11.10;47.10
67890;DHT22;54685;52.082;5.426;2023-03-01T11:08:06;11.40;44.80
67890;DHT22;54685;52.082;5.426;2023-03-01T11:10:35;11.60;45.90
67890;DHT22;54685;52.082;5.426;2023-03-01T11:13:17;11.80;45.50
67890;DHT22;54685;52.082;5.426;2023-03-01T11:16:05;12.00;44.60
67890;DHT22;54685;52.082;5.426;2023-03-01T11:18:33;12.10;42.60
67890;DHT22;54685;52.082;5.426;2023-03-01T11:21:15;12.10;42.10
67890;DHT22;54685;52.082;5.426;2023-03-01T11:23:43;12.30;42.40
67890;DHT22;54685;52.082;5.426;2023-03-01T11:26:12;12.60;43.40
67890;DHT22;54685;52.082;5.426;2023-03-01T11:28:43;12.80;42.50
67890;DHT22;54685;52.082;5.426;2023-03-01T11:31:14;13.00;43.40
67890;DHT22;54685;52.082;5.426;2023-03-01T11:34:19;12.80;40.80
67890;DHT22;54685;52.082;5.426;2023-03-01T11:51:25;13.90;38.10
67890;DHT22;54685;52.082;5.426;2023-03-01T12:02:34;14.20;39.60
67890;DHT22;54685;52.082;5.426;2023-03-01T12:11:29;14.30;37.50
67890;DHT22;54685;52.082;5.426;2023-03-01T12:20:28;14.40;37.20
67890;DHT22;54685;52.082;5.426;2023-03-01T12:23:35;14.60;37.00
67890;DHT22;54685;52.082;5.426;2023-03-01T12:26:18;14.80;36.40
67890;DHT22;54685;52.082;5.426;2023-03-01T12:57:43;15.50;33.70
67890;DHT22;54685;52.082;5.426;2023-03-01T13:00:35;15.50;35.50
67890;DHT22;54685;52.082;5.426;2023-03-01T13:51:09;12.10;36.30
67890;DHT22;54685;52.082;5.426;2023-03-01T13:53:44;12.00;39.40
67890;DHT22;54685;52.082;5.426;2023-03-01T13:56:21;11.90;40.40
67890;DHT22;54685;52.082;5.426;2023-03-01T13:59:01;11.40;39.30
67890;DHT22;54685;52.082;5.426;2023-03-01T14:01:32;11.00;39.50
67890;DHT22;54685;52.082;5.426;2023-03-01T14:04:29;11.10;46.40
67890;DHT22;54685;52.082;5.426;2023-03-01T14:19:55;10.80;41.00
67890;DHT22;54685;52.082;5.426;2023-03-01T14:22:33;10.60;40.90
67890;DHT22;54685;52.082;5.426;2023-03-01T14:25:06;10.70;42.40
67890;DHT22;54685;52.082;5.426;2023-03-01T14:27:57;10.60;42.80
67890;DHT22;54685;52.082;5.426;2023-03-01T14:30:36;10.50;42.00
67890;DHT22;54685;52.082;5.426;2023-03-01T14:33:06;10.50;41.20
67890;DHT22;54685;52.082;5.426;2023-03-01T14:35:52;10.40;42.60
67890;DHT22;54685;52.082;5.426;2023-03-01T14:38:22;10.40;41.80
67890;DHT22;54685;52.082;5.426;2023-03-01T14:40:52;10.60;42.70
67890;DHT22;54685;52.082;5.426;2023-03-01T14:46:23;10.90;39.90
67890;DHT22;54685;52.082;5.426;2023-03-01T14:48:53;11.30;40.50
67890;DHT22;54685;52.082;5.426;2023-03-01T14:51:36;11.80;41.60
67890;DHT22;54685;52.082;5.426;2023-03-01T14:54:29;12.10;39.30
67890;DHT22;54685;52.082;5.426;2023-03-01T14:57:01;12.60;38.00
67890;DHT22;54685;52.082;5.426;2023-03-01T14:59:28;13.00;38.80
67890;DHT22;54685;52.082;5.426;2023-03-01T15:05:36;12.90;37.80
67890;DHT22;54685;52.082;5.426;2023-03-01T15:08:04;12.30;40.80
67890;DHT22;54685;52.082;5.426;2023-03-01T15:10:34;11.50;38.00
67890;DHT22;54685;52.082;5.426;2023-03-01T15:13:24;11.10;40.80
67890;DHT22;54685;52.082;5.426;2023-03-01T15:16:07;10.80;44.80
67890;DHT22;54685;52.082;5.426;2023-03-01T15:18:36;10.40;42.20
67890;DHT22;54685;52.082;5.426;2023-03-01T15:21:19;10.30;45.80
67890;DHT22;54685;52.082;5.426;2023-03-01T15:23:55;10.20;46.00
67890;DHT22;54685;52.082;5.426;2023-03-01T15:26:32;9.90;42.20
67890;DHT22;54685;52.082;5.426;2023-03-01T15:29:00;9.90;47.90
67890;DHT22;54685;52.082;5.426;2023-03-01T15:31:34;9.70;44.30
67890;DHT22;54685;52.082;5.426;2023-03-01T15:34:19;9.70;46.60
67890;DHT22;54685;52.082;5.426;2023-03-01T15:36:47;9.60;47.40
67890;DHT22;54685;52.082;5.426;2023-03-01T15:39:34;9.60;47.40
67890;DHT22;54685;52.082;5.426;2023-03-01T15:42:06;9.60;45.60
67890;DHT22;54685;52.082;5.426;2023-03-01T15:44:37;9.40;44.40
67890;DHT22;54685;52.082;5.426;2023-03-01T15:47:28;9.30;44.60
67890;DHT22;54685;52.082;5.426;2023-03-01T15:50:01;9.20;46.20
67890;DHT22;54685;52.082;5.426;2023-03-01T15:52:33;9.10;45.30
67890;DHT22;54685;52.082;5.426;2023-03-01T15:55:06;9.00;46.60
67890;DHT22;54685;52.082;5.426;2023-03-01T15:57:40;9.00;46.80
67890;DHT22;54685;52.082;5.426;2023-03-01T16:00:12;8.90;47.30
67890;DHT22;54685;52.082;5.426;2023-03-01T16:06:46;9.10;49.90
67890;DHT22;54685;52.082;5.426;2023-03-01T16:09:51;8.90;47.00
67890;DHT22;54685;52.082;5.426;2023-03-01T16:45:19;8.10;51.60
67890;DHT22;54685;52.082;5.426;2023-03-01T16:52:37;7.90;49.50
67890;DHT22;54685;52.082;5.426;2023-03-01T17:04:57;7.40;52.20
67890;DHT22;54685;52.082;5.426;2023-03-01T17:25:58;6.80;56.50
67890;DHT22;54685;52.082;5.426;2023-03-01T17:59:40;5.90;66.30
67890;DHT22;54685;52.082;5.426;2023-03-01T18:02:11;5.90;69.90
67890;DHT22;54685;52.082;5.426;2023-03-01T18:21:40;5.40;80.80
67890;DHT22;54685;52.082;5.426;2023-03-01T18:24:06;5.30;78.70
67890;DHT22;54685;52.082;5.426;2023-03-01T18:31:28;5.20;79.10
67890;DHT22;54685;52.082;5.426;2023-03-01T18:39:22;5.00;84.40
67890;DHT22;54685;52.082;5.426;2023-03-01T18:43:14;4.80;82.40
67890;DHT22;54685;52.082;5.426;2023-03-01T19:51:20;3.60;97.20
67890;DHT22;54685;52.082;5.426;2023-03-01T20:06:24;3.30;98.90
67890;DHT22;54685;52.082;5.426;2023-03-01T20:12:37;3.30;99.90
67890;DHT22;54685;52.082;5.426;2023-03-01T20:36:20;2.80;99.90
67890;DHT22;54685;52.082;5.426;2023-03-01T20:53:36;2.70;99.90
67890;DHT22;54685;52.082;5.426;2023-03-01T21:10:26;2.50;99.90
67890;DHT22;54685;52.082;5.426;2023-03-01T21:12:54;2.40;99.90
67890;DHT22;54685;52.082;5.426;2023-03-01T22:03:53;1.80;99.90
67890;DHT22;54685;52.082;5.426;2023-03-01T22:07:00;1.70;99.90
67890;DHT22;54685;52.082;5.426;2023-03-01T22:18:41;1.60;99.90
